sensor_id;sensor_type;location;lat;lon;timestamp;P1;durP1;ratioP1;P2;durP2;ratioP2
45728;SDS011;31439;53.512;10.206;2023-05-02T00:01:57;16.85;;;12.60;;
45728;SDS011;31439;53.512;10.206;2023-05-02T00:04:23;21.38;;;12.68;;
45728;SDS011;31439;53.512;10.206;2023-05-02T00:06:50;22.33;;;13.15;;
45728;SDS011;31439;53.512;10.206;2023-05-02T00:09:17;23.00;;;14.23;;
45728;SDS011;31439;53.512;10.206;2023-05-02T00:11:43;24.80;;;15.48;;
45728;SDS011;31439;53.512;10.206;2023-05-02T00:14:08;22.55;;;16.00;;
45728;SDS011;31439;53.512;10.206;2023-05-02T00:16:34;23.55;;;16.52;;
45728;SDS011;31439;53.512;10.206;2023-05-02T00:19:00;25.67;;;17.23;;
45728;SDS011;31439;53.512;10.206;2023-05-02T00:21:26;26.65;;;17.17;;
45728;SDS011;31439;53.512;10.206;2023-05-02T00:23:53;28.60;;;18.13;;
45728;SDS011;31439;53.512;10.206;2023-05-02T00:26:21;28.83;;;17.92;;
45728;SDS011;31439;53.512;10.206;2023-05-02T00:28:47;27.65;;;18.52;;
45728;SDS011;31439;53.512;10.206;2023-05-02T00:31:12;28.05;;;18.83;;
45728;SDS011;31439;53.512;10.206;2023-05-02T00:33:38;28.52;;;19.75;;
45728;SDS011;31439;53.512;10.206;2023-05-02T00:36:04;29.20;;;19.02;;
45728;SDS011;31439;53.512;10.206;2023-05-02T00:38:37;30.90;;;19.95;;
45728;SDS011;31439;53.512;10.206;2023-05-02T00:41:03;30.10;;;20.48;;
45728;SDS011;31439;53.512;10.206;2023-05-02T00:43:29;27.73;;;20.25;;
45728;SDS011;31439;53.512;10.206;2023-05-02T00:45:55;31.00;;;21.17;;
45728;SDS011;31439;53.512;10.206;2023-05-02T00:48:21;30.25;;;20.80;;
45728;SDS011;31439;53.512;10.206;2023-05-02T00:50:47;30.52;;;21.05;;
45728;SDS011;31439;53.512;10.206;2023-05-02T00:53:12;32.15;;;19.83;;
45728;SDS011;31439;53.512;10.206;2023-05-02T00:55:39;27.90;;;20.33;;
45728;SDS011;31439;53.512;10.206;2023-05-02T00:58:06;27.55;;;19.42;;
45728;SDS011;31439;53.512;10.206;2023-05-02T01:00:41;29.73;;;19.65;;
45728;SDS011;31439;53.512;10.206;2023-05-02T01:06:08;29.23;;;19.33;;
45728;SDS011;31439;53.512;10.206;2023-05-02T01:11:46;27.90;;;18.35;;
45728;SDS011;31439;53.512;10.206;2023-05-02T01:14:13;28.95;;;19.20;;
45728;SDS011;31439;53.512;10.206;2023-05-02T01:16:40;28.10;;;18.67;;
45728;SDS011;31439;53.512;10.206;2023-05-02T01:19:11;29.90;;;18.85;;
45728;SDS011;31439;53.512;10.206;2023-05-02T01:22:04;29.23;;;19.42;;
45728;SDS011;31439;53.512;10.206;2023-05-02T01:27:33;28.23;;;18.67;;
45728;SDS011;31439;53.512;10.206;2023-05-02T01:30:21;27.58;;;18.88;;
45728;SDS011;31439;53.512;10.206;2023-05-02T01:32:51;30.77;;;18.63;;
45728;SDS011;31439;53.512;10.206;2023-05-02T01:35:19;28.40;;;19.55;;
45728;SDS011;31439;53.512;10.206;2023-05-02T01:37:46;30.95;;;19.48;;
45728;SDS011;31439;53.512;10.206;2023-05-02T01:40:16;29.38;;;19.45;;
45728;SDS011;31439;53.512;10.206;2023-05-02T01:42:44;29.55;;;18.85;;
45728;SDS011;31439;53.512;10.206;2023-05-02T01:45:12;28.45;;;18.45;;
45728;SDS011;31439;53.512;10.206;2023-05-02T01:47:39;26.13;;;17.02;;
45728;SDS011;31439;53.512;10.206;2023-05-02T01:50:07;28.50;;;18.00;;
45728;SDS011;31439;53.512;10.206;2023-05-02T01:52:35;26.88;;;17.02;;
45728;SDS011;31439;53.512;10.206;2023-05-02T01:55:02;27.25;;;16.52;;
45728;SDS011;31439;53.512;10.206;2023-05-02T01:57:30;26.00;;;16.90;;
45728;SDS011;31439;53.512;10.206;2023-05-02T01:59:56;24.27;;;15.80;;
45728;SDS011;31439;53.512;10.206;2023-05-02T02:02:23;23.40;;;14.88;;
45728;SDS011;31439;53.512;10.206;2023-05-02T02:04:52;22.95;;;14.10;;
45728;SDS011;31439;53.512;10.206;2023-05-02T02:07:21;19.90;;;13.77;;
45728;SDS011;31439;53.512;10.206;2023-05-02T02:09:47;19.05;;;13.23;;
45728;SDS011;31439;53.512;10.206;2023-05-02T02:12:27;18.45;;;12.70;;
45728;SDS011;31439;53.512;10.206;2023-05-02T02:15:02;23.25;;;13.85;;
45728;SDS011;31439;53.512;10.206;2023-05-02T02:17:54;19.10;;;11.60;;
45728;SDS011;31439;53.512;10.206;2023-05-02T02:20:26;19.80;;;11.35;;
45728;SDS011;31439;53.512;10.206;2023-05-02T02:22:53;17.70;;;11.20;;
45728;SDS011;31439;53.512;10.206;2023-05-02T02:25:21;17.73;;;11.18;;
45728;SDS011;31439;53.512;10.206;2023-05-02T02:27:48;17.67;;;11.18;;
45728;SDS011;31439;53.512;10.206;2023-05-02T02:30:15;20.02;;;11.18;;
45728;SDS011;31439;53.512;10.206;2023-05-02T02:32:41;17.23;;;10.55;;
45728;SDS011;31439;53.512;10.206;2023-05-02T02:35:07;17.52;;;9.50;;
45728;SDS011;31439;53.512;10.206;2023-05-02T02:37:46;16.83;;;10.07;;
45728;SDS011;31439;53.512;10.206;2023-05-02T02:40:28;17.80;;;9.60;;
45728;SDS011;31439;53.512;10.206;2023-05-02T02:45:34;19.55;;;10.60;;
45728;SDS011;31439;53.512;10.206;2023-05-02T02:53:31;19.08;;;9.88;;
45728;SDS011;31439;53.512;10.206;2023-05-02T02:56:01;16.17;;;8.90;;
45728;SDS011;31439;53.512;10.206;2023-05-02T03:00:59;12.48;;;8.05;;
45728;SDS011;31439;53.512;10.206;2023-05-02T03:03:28;12.80;;;7.97;;
45728;SDS011;31439;53.512;10.206;2023-05-02T03:05:57;8.57;;;6.60;;
45728;SDS011;31439;53.512;10.206;2023-05-02T03:08:23;8.32;;;5.03;;
45728;SDS011;31439;53.512;10.206;2023-05-02T03:10:49;5.55;;;4.15;;
45728;SDS011;31439;53.512;10.206;2023-05-02T03:13:15;5.28;;;3.85;;
45728;SDS011;31439;53.512;10.206;2023-05-02T03:18:09;7.88;;;4.28;;
45728;SDS011;31439;53.512;10.206;2023-05-02T03:20:35;8.20;;;4.07;;
45728;SDS011;31439;53.512;10.206;2023-05-02T03:23:00;10.65;;;3.70;;
45728;SDS011;31439;53.512;10.206;2023-05-02T03:25:26;9.15;;;4.10;;
45728;SDS011;31439;53.512;10.206;2023-05-02T03:27:52;11.48;;;3.80;;
45728;SDS011;31439;53.512;10.206;2023-05-02T03:30:18;12.50;;;3.80;;
45728;SDS011;31439;53.512;10.206;2023-05-02T03:32:43;12.38;;;3.80;;
45728;SDS011;31439;53.512;10.206;2023-05-02T03:35:09;13.25;;;3.80;;
45728;SDS011;31439;53.512;10.206;2023-05-02T03:37:34;11.57;;;3.92;;
45728;SDS011;31439;53.512;10.206;2023-05-02T03:40:00;11.73;;;4.13;;
45728;SDS011;31439;53.512;10.206;2023-05-02T03:42:26;14.52;;;3.85;;
45728;SDS011;31439;53.512;10.206;2023-05-02T03:44:52;17.92;;;4.13;;
45728;SDS011;31439;53.512;10.206;2023-05-02T03:47:17;14.35;;;4.10;;
45728;SDS011;31439;53.512;10.206;2023-05-02T03:49:43;22.02;;;4.70;;
45728;SDS011;31439;53.512;10.206;2023-05-02T03:52:09;16.17;;;4.03;;
45728;SDS011;31439;53.512;10.206;2023-05-02T03:54:35;21.73;;;4.95;;
45728;SDS011;31439;53.512;10.206;2023-05-02T03:57:01;16.88;;;3.90;;
45728;SDS011;31439;53.512;10.206;2023-05-02T03:59:30;17.35;;;4.25;;
45728;SDS011;31439;53.512;10.206;2023-05-02T04:01:57;20.73;;;4.95;;
45728;SDS011;31439;53.512;10.206;2023-05-02T04:04:23;17.52;;;4.00;;
45728;SDS011;31439;53.512;10.206;2023-05-02T04:06:48;21.83;;;4.55;;
45728;SDS011;31439;53.512;10.206;2023-05-02T04:09:14;13.68;;;4.07;;
45728;SDS011;31439;53.512;10.206;2023-05-02T04:11:40;17.05;;;4.10;;
45728;SDS011;31439;53.512;10.206;2023-05-02T04:14:06;15.13;;;3.65;;
45728;SDS011;31439;53.512;10.206;2023-05-02T04:16:31;15.45;;;3.78;;
45728;SDS011;31439;53.512;10.206;2023-05-02T04:18:57;18.63;;;4.50;;
45728;SDS011;31439;53.512;10.206;2023-05-02T04:21:23;22.75;;;4.90;;
45728;SDS011;31439;53.512;10.206;2023-05-02T04:23:49;15.73;;;4.22;;
45728;SDS011;31439;53.512;10.206;2023-05-02T04:26:14;14.45;;;4.20;;
45728;SDS011;31439;53.512;10.206;2023-05-02T04:28:40;16.25;;;4.20;;
45728;SDS011;31439;53.512;10.206;2023-05-02T04:31:06;18.45;;;4.88;;
45728;SDS011;31439;53.512;10.206;2023-05-02T04:33:32;21.85;;;5.03;;
45728;SDS011;31439;53.512;10.206;2023-05-02T04:35:57;23.05;;;4.38;;
45728;SDS011;31439;53.512;10.206;2023-05-02T04:38:23;16.25;;;4.43;;
45728;SDS011;31439;53.512;10.206;2023-05-02T04:40:49;21.25;;;4.55;;
45728;SDS011;31439;53.512;10.206;2023-05-02T04:43:16;17.65;;;3.95;;
45728;SDS011;31439;53.512;10.206;2023-05-02T04:45:41;20.17;;;4.07;;
45728;SDS011;31439;53.512;10.206;2023-05-02T04:48:07;15.85;;;3.90;;
45728;SDS011;31439;53.512;10.206;2023-05-02T04:50:33;18.02;;;4.20;;
45728;SDS011;31439;53.512;10.206;2023-05-02T04:52:58;17.52;;;3.65;;
45728;SDS011;31439;53.512;10.206;2023-05-02T04:55:24;16.63;;;4.15;;
45728;SDS011;31439;53.512;10.206;2023-05-02T04:57:50;16.08;;;3.72;;
45728;SDS011;31439;53.512;10.206;2023-05-02T05:00:15;15.35;;;3.45;;
45728;SDS011;31439;53.512;10.206;2023-05-02T05:02:41;14.52;;;3.45;;
45728;SDS011;31439;53.512;10.206;2023-05-02T05:05:07;14.18;;;3.22;;
45728;SDS011;31439;53.512;10.206;2023-05-02T05:07:33;12.60;;;3.70;;
45728;SDS011;31439;53.512;10.206;2023-05-02T05:09:58;11.90;;;3.00;;
45728;SDS011;31439;53.512;10.206;2023-05-02T05:12:24;16.45;;;3.63;;
45728;SDS011;31439;53.512;10.206;2023-05-02T05:14:49;17.27;;;3.50;;
45728;SDS011;31439;53.512;10.206;2023-05-02T05:17:15;13.75;;;3.50;;
45728;SDS011;31439;53.512;10.206;2023-05-02T05:19:41;15.38;;;3.40;;
45728;SDS011;31439;53.512;10.206;2023-05-02T05:22:06;18.77;;;3.30;;
45728;SDS011;31439;53.512;10.206;2023-05-02T05:24:32;12.48;;;4.00;;
45728;SDS011;31439;53.512;10.206;2023-05-02T05:26:58;14.20;;;3.17;;
45728;SDS011;31439;53.512;10.206;2023-05-02T05:29:23;13.30;;;3.33;;
45728;SDS011;31439;53.512;10.206;2023-05-02T05:31:49;15.48;;;4.00;;
45728;SDS011;31439;53.512;10.206;2023-05-02T05:34:15;16.08;;;3.67;;
45728;SDS011;31439;53.512;10.206;2023-05-02T05:36:41;17.00;;;3.80;;
45728;SDS011;31439;53.512;10.206;2023-05-02T05:39:07;16.92;;;4.18;;
45728;SDS011;31439;53.512;10.206;2023-05-02T05:41:32;14.35;;;3.67;;
45728;SDS011;31439;53.512;10.206;2023-05-02T05:43:59;14.35;;;4.00;;
45728;SDS011;31439;53.512;10.206;2023-05-02T05:46:25;14.85;;;4.18;;
45728;SDS011;31439;53.512;10.206;2023-05-02T05:48:50;14.50;;;3.30;;
45728;SDS011;31439;53.512;10.206;2023-05-02T05:51:16;16.08;;;3.60;;
45728;SDS011;31439;53.512;10.206;2023-05-02T05:53:42;14.52;;;3.83;;
45728;SDS011;31439;53.512;10.206;2023-05-02T05:56:11;14.73;;;3.28;;
45728;SDS011;31439;53.512;10.206;2023-05-02T05:58:38;14.55;;;3.70;;
45728;SDS011;31439;53.512;10.206;2023-05-02T06:01:04;10.65;;;2.92;;
45728;SDS011;31439;53.512;10.206;2023-05-02T06:03:30;18.08;;;4.10;;
45728;SDS011;31439;53.512;10.206;2023-05-02T06:05:56;10.15;;;3.05;;
45728;SDS011;31439;53.512;10.206;2023-05-02T06:08:21;13.43;;;2.78;;
45728;SDS011;31439;53.512;10.206;2023-05-02T06:10:47;15.23;;;3.42;;
45728;SDS011;31439;53.512;10.206;2023-05-02T06:13:13;10.80;;;2.92;;
45728;SDS011;31439;53.512;10.206;2023-05-02T06:15:38;12.35;;;2.80;;
45728;SDS011;31439;53.512;10.206;2023-05-02T06:18:04;14.70;;;3.33;;
45728;SDS011;31439;53.512;10.206;2023-05-02T06:20:29;9.10;;;2.65;;
45728;SDS011;31439;53.512;10.206;2023-05-02T06:22:55;12.95;;;3.60;;
45728;SDS011;31439;53.512;10.206;2023-05-02T06:25:21;15.77;;;3.47;;
45728;SDS011;31439;53.512;10.206;2023-05-02T06:27:46;17.67;;;3.90;;
45728;SDS011;31439;53.512;10.206;2023-05-02T06:30:12;14.15;;;3.15;;
45728;SDS011;31439;53.512;10.206;2023-05-02T06:32:37;12.38;;;3.08;;
45728;SDS011;31439;53.512;10.206;2023-05-02T06:35:03;13.05;;;3.50;;
45728;SDS011;31439;53.512;10.206;2023-05-02T06:37:32;13.18;;;3.53;;
45728;SDS011;31439;53.512;10.206;2023-05-02T06:39:59;15.45;;;4.10;;
45728;SDS011;31439;53.512;10.206;2023-05-02T06:42:25;13.32;;;3.85;;
45728;SDS011;31439;53.512;10.206;2023-05-02T06:44:51;11.18;;;3.40;;
45728;SDS011;31439;53.512;10.206;2023-05-02T06:47:16;9.38;;;2.90;;
45728;SDS011;31439;53.512;10.206;2023-05-02T06:49:42;8.45;;;2.90;;
45728;SDS011;31439;53.512;10.206;2023-05-02T06:52:07;10.52;;;2.80;;
45728;SDS011;31439;53.512;10.206;2023-05-02T06:54:33;12.77;;;2.78;;
45728;SDS011;31439;53.512;10.206;2023-05-02T06:56:59;10.48;;;2.92;;
45728;SDS011;31439;53.512;10.206;2023-05-02T06:59:26;13.60;;;3.08;;
45728;SDS011;31439;53.512;10.206;2023-05-02T07:01:51;11.57;;;3.75;;
45728;SDS011;31439;53.512;10.206;2023-05-02T07:04:17;10.40;;;3.10;;
45728;SDS011;31439;53.512;10.206;2023-05-02T07:06:43;11.32;;;3.13;;
45728;SDS011;31439;53.512;10.206;2023-05-02T07:09:09;13.32;;;3.20;;
45728;SDS011;31439;53.512;10.206;2023-05-02T07:11:35;9.70;;;2.75;;
45728;SDS011;31439;53.512;10.206;2023-05-02T07:14:01;8.75;;;3.00;;
45728;SDS011;31439;53.512;10.206;2023-05-02T07:16:27;13.68;;;3.17;;
45728;SDS011;31439;53.512;10.206;2023-05-02T07:18:52;10.82;;;3.15;;
45728;SDS011;31439;53.512;10.206;2023-05-02T07:21:18;9.75;;;2.70;;
45728;SDS011;31439;53.512;10.206;2023-05-02T07:23:43;11.65;;;2.97;;
45728;SDS011;31439;53.512;10.206;2023-05-02T07:26:09;10.02;;;2.80;;
45728;SDS011;31439;53.512;10.206;2023-05-02T07:28:35;9.82;;;3.17;;
45728;SDS011;31439;53.512;10.206;2023-05-02T07:31:00;8.73;;;3.05;;
45728;SDS011;31439;53.512;10.206;2023-05-02T07:33:26;12.07;;;3.47;;
45728;SDS011;31439;53.512;10.206;2023-05-02T07:35:52;12.57;;;3.17;;
45728;SDS011;31439;53.512;10.206;2023-05-02T07:38:19;9.05;;;3.33;;
45728;SDS011;31439;53.512;10.206;2023-05-02T07:40:45;9.07;;;2.92;;
45728;SDS011;31439;53.512;10.206;2023-05-02T07:43:11;9.65;;;2.70;;
45728;SDS011;31439;53.512;10.206;2023-05-02T07:45:37;8.32;;;2.60;;
45728;SDS011;31439;53.512;10.206;2023-05-02T07:48:02;8.27;;;2.38;;
45728;SDS011;31439;53.512;10.206;2023-05-02T07:50:28;10.18;;;3.15;;
45728;SDS011;31439;53.512;10.206;2023-05-02T07:52:54;7.32;;;2.70;;
45728;SDS011;31439;53.512;10.206;2023-05-02T07:55:20;8.45;;;2.40;;
45728;SDS011;31439;53.512;10.206;2023-05-02T07:57:46;6.18;;;2.35;;
45728;SDS011;31439;53.512;10.206;2023-05-02T08:00:12;6.90;;;2.45;;
45728;SDS011;31439;53.512;10.206;2023-05-02T08:02:38;6.20;;;2.53;;
45728;SDS011;31439;53.512;10.206;2023-05-02T08:05:05;7.68;;;2.08;;
45728;SDS011;31439;53.512;10.206;2023-05-02T08:07:31;7.70;;;2.10;;
45728;SDS011;31439;53.512;10.206;2023-05-02T08:09:59;6.35;;;2.22;;
45728;SDS011;31439;53.512;10.206;2023-05-02T08:12:25;6.82;;;1.92;;
45728;SDS011;31439;53.512;10.206;2023-05-02T08:14:51;6.95;;;1.90;;
45728;SDS011;31439;53.512;10.206;2023-05-02T08:17:16;7.43;;;2.10;;
45728;SDS011;31439;53.512;10.206;2023-05-02T08:19:42;13.32;;;2.83;;
45728;SDS011;31439;53.512;10.206;2023-05-02T08:22:08;4.00;;;1.83;;
45728;SDS011;31439;53.512;10.206;2023-05-02T08:24:34;10.55;;;2.20;;
45728;SDS011;31439;53.512;10.206;2023-05-02T08:26:59;8.00;;;2.25;;
45728;SDS011;31439;53.512;10.206;2023-05-02T08:29:27;8.32;;;2.50;;
45728;SDS011;31439;53.512;10.206;2023-05-02T08:31:53;9.25;;;2.58;;
45728;SDS011;31439;53.512;10.206;2023-05-02T08:34:19;6.57;;;2.13;;
45728;SDS011;31439;53.512;10.206;2023-05-02T08:36:45;8.63;;;1.98;;
45728;SDS011;31439;53.512;10.206;2023-05-02T08:39:11;7.63;;;1.90;;
45728;SDS011;31439;53.512;10.206;2023-05-02T08:41:37;7.80;;;2.25;;
45728;SDS011;31439;53.512;10.206;2023-05-02T08:44:04;6.65;;;2.03;;
45728;SDS011;31439;53.512;10.206;2023-05-02T08:46:31;8.43;;;2.03;;
45728;SDS011;31439;53.512;10.206;2023-05-02T08:49:00;9.65;;;2.13;;
45728;SDS011;31439;53.512;10.206;2023-05-02T08:51:27;8.82;;;2.13;;
45728;SDS011;31439;53.512;10.206;2023-05-02T08:53:54;7.82;;;2.13;;
45728;SDS011;31439;53.512;10.206;2023-05-02T08:56:21;6.82;;;1.95;;
45728;SDS011;31439;53.512;10.206;2023-05-02T08:58:46;8.43;;;2.33;;
45728;SDS011;31439;53.512;10.206;2023-05-02T09:01:14;11.07;;;2.47;;
45728;SDS011;31439;53.512;10.206;2023-05-02T09:03:42;6.82;;;1.92;;
45728;SDS011;31439;53.512;10.206;2023-05-02T09:06:12;6.28;;;2.35;;
45728;SDS011;31439;53.512;10.206;2023-05-02T09:08:40;9.02;;;2.35;;
45728;SDS011;31439;53.512;10.206;2023-05-02T09:11:08;11.75;;;2.15;;
45728;SDS011;31439;53.512;10.206;2023-05-02T09:13:42;7.80;;;1.83;;
45728;SDS011;31439;53.512;10.206;2023-05-02T09:16:15;9.68;;;2.15;;
45728;SDS011;31439;53.512;10.206;2023-05-02T09:18:50;8.90;;;2.13;;
45728;SDS011;31439;53.512;10.206;2023-05-02T09:21:18;10.23;;;2.47;;
45728;SDS011;31439;53.512;10.206;2023-05-02T09:23:45;9.00;;;2.00;;
45728;SDS011;31439;53.512;10.206;2023-05-02T09:28:49;11.68;;;2.47;;
45728;SDS011;31439;53.512;10.206;2023-05-02T09:31:20;6.60;;;1.95;;
45728;SDS011;31439;53.512;10.206;2023-05-02T09:33:47;6.63;;;2.00;;
45728;SDS011;31439;53.512;10.206;2023-05-02T09:36:16;13.20;;;2.10;;
45728;SDS011;31439;53.512;10.206;2023-05-02T09:38:44;9.15;;;2.50;;
45728;SDS011;31439;53.512;10.206;2023-05-02T09:41:12;12.18;;;2.60;;
45728;SDS011;31439;53.512;10.206;2023-05-02T09:43:38;9.18;;;2.53;;
45728;SDS011;31439;53.512;10.206;2023-05-02T09:46:08;7.43;;;2.20;;
45728;SDS011;31439;53.512;10.206;2023-05-02T09:48:53;6.07;;;2.30;;
45728;SDS011;31439;53.512;10.206;2023-05-02T09:51:20;8.43;;;2.03;;
45728;SDS011;31439;53.512;10.206;2023-05-02T09:53:49;8.20;;;2.05;;
45728;SDS011;31439;53.512;10.206;2023-05-02T09:56:16;12.73;;;2.13;;
45728;SDS011;31439;53.512;10.206;2023-05-02T09:58:42;5.40;;;1.92;;
45728;SDS011;31439;53.512;10.206;2023-05-02T10:01:13;5.22;;;2.72;;
45728;SDS011;31439;53.512;10.206;2023-05-02T10:03:40;5.07;;;2.10;;
45728;SDS011;31439;53.512;10.206;2023-05-02T10:06:07;8.00;;;2.20;;
45728;SDS011;31439;53.512;10.206;2023-05-02T10:08:33;5.15;;;1.83;;
45728;SDS011;31439;53.512;10.206;2023-05-02T10:10:59;7.45;;;1.95;;
45728;SDS011;31439;53.512;10.206;2023-05-02T10:13:29;8.75;;;1.67;;
45728;SDS011;31439;53.512;10.206;2023-05-02T10:21:16;5.78;;;1.40;;
45728;SDS011;31439;53.512;10.206;2023-05-02T10:23:51;5.00;;;1.30;;
45728;SDS011;31439;53.512;10.206;2023-05-02T10:26:17;4.35;;;1.40;;
45728;SDS011;31439;53.512;10.206;2023-05-02T10:28:45;3.75;;;1.40;;
45728;SDS011;31439;53.512;10.206;2023-05-02T10:31:12;8.43;;;1.67;;
45728;SDS011;31439;53.512;10.206;2023-05-02T10:33:39;4.28;;;1.58;;
45728;SDS011;31439;53.512;10.206;2023-05-02T10:36:09;4.57;;;1.60;;
45728;SDS011;31439;53.512;10.206;2023-05-02T10:38:38;5.72;;;2.30;;
45728;SDS011;31439;53.512;10.206;2023-05-02T10:41:09;3.92;;;2.00;;
45728;SDS011;31439;53.512;10.206;2023-05-02T10:43:39;7.32;;;1.80;;
45728;SDS011;31439;53.512;10.206;2023-05-02T10:46:31;7.07;;;1.88;;
45728;SDS011;31439;53.512;10.206;2023-05-02T10:51:28;5.63;;;1.77;;
45728;SDS011;31439;53.512;10.206;2023-05-02T10:54:12;5.15;;;1.80;;
45728;SDS011;31439;53.512;10.206;2023-05-02T10:57:26;6.07;;;2.20;;
45728;SDS011;31439;53.512;10.206;2023-05-02T11:01:59;5.38;;;2.03;;
45728;SDS011;31439;53.512;10.206;2023-05-02T11:04:25;5.63;;;1.98;;
45728;SDS011;31439;53.512;10.206;2023-05-02T11:07:32;9.25;;;2.55;;
45728;SDS011;31439;53.512;10.206;2023-05-02T11:13:00;5.10;;;2.10;;
45728;SDS011;31439;53.512;10.206;2023-05-02T11:18:03;4.88;;;2.05;;
45728;SDS011;31439;53.512;10.206;2023-05-02T11:20:31;4.68;;;1.80;;
45728;SDS011;31439;53.512;10.206;2023-05-02T11:22:58;6.03;;;1.80;;
45728;SDS011;31439;53.512;10.206;2023-05-02T11:33:55;5.30;;;1.60;;
45728;SDS011;31439;53.512;10.206;2023-05-02T11:36:30;5.32;;;1.33;;
45728;SDS011;31439;53.512;10.206;2023-05-02T11:39:00;7.32;;;1.90;;
45728;SDS011;31439;53.512;10.206;2023-05-02T11:41:42;5.03;;;1.60;;
45728;SDS011;31439;53.512;10.206;2023-05-02T11:44:08;7.53;;;2.28;;
45728;SDS011;31439;53.512;10.206;2023-05-02T11:46:37;6.82;;;1.77;;
45728;SDS011;31439;53.512;10.206;2023-05-02T11:49:06;6.18;;;1.70;;
45728;SDS011;31439;53.512;10.206;2023-05-02T11:51:33;10.07;;;2.25;;
45728;SDS011;31439;53.512;10.206;2023-05-02T11:53:59;7.18;;;1.75;;
45728;SDS011;31439;53.512;10.206;2023-05-02T11:56:25;6.00;;;1.75;;
45728;SDS011;31439;53.512;10.206;2023-05-02T11:59:00;6.13;;;1.75;;
45728;SDS011;31439;53.512;10.206;2023-05-02T12:01:27;2.85;;;1.33;;
45728;SDS011;31439;53.512;10.206;2023-05-02T12:04:00;2.55;;;1.20;;
45728;SDS011;31439;53.512;10.206;2023-05-02T12:06:31;7.78;;;1.48;;
45728;SDS011;31439;53.512;10.206;2023-05-02T12:09:07;4.65;;;1.15;;
45728;SDS011;31439;53.512;10.206;2023-05-02T12:11:34;2.45;;;1.30;;
45728;SDS011;31439;53.512;10.206;2023-05-02T12:14:01;5.60;;;1.70;;
45728;SDS011;31439;53.512;10.206;2023-05-02T12:16:28;5.80;;;1.50;;
45728;SDS011;31439;53.512;10.206;2023-05-02T12:18:54;5.05;;;1.60;;
45728;SDS011;31439;53.512;10.206;2023-05-02T12:21:22;2.67;;;1.27;;
45728;SDS011;31439;53.512;10.206;2023-05-02T12:23:47;6.15;;;1.40;;
45728;SDS011;31439;53.512;10.206;2023-05-02T12:26:20;5.07;;;1.52;;
45728;SDS011;31439;53.512;10.206;2023-05-02T12:28:53;3.22;;;1.23;;
45728;SDS011;31439;53.512;10.206;2023-05-02T12:31:19;4.63;;;1.45;;
45728;SDS011;31439;53.512;10.206;2023-05-02T12:33:45;6.07;;;1.45;;
45728;SDS011;31439;53.512;10.206;2023-05-02T12:36:16;4.85;;;1.45;;
45728;SDS011;31439;53.512;10.206;2023-05-02T12:41:36;5.47;;;1.67;;
45728;SDS011;31439;53.512;10.206;2023-05-02T12:44:04;3.10;;;1.30;;
45728;SDS011;31439;53.512;10.206;2023-05-02T12:46:31;3.70;;;1.60;;
45728;SDS011;31439;53.512;10.206;2023-05-02T12:49:00;5.47;;;1.60;;
45728;SDS011;31439;53.512;10.206;2023-05-02T12:51:30;5.28;;;1.40;;
45728;SDS011;31439;53.512;10.206;2023-05-02T12:53:56;5.40;;;2.15;;
45728;SDS011;31439;53.512;10.206;2023-05-02T12:56:22;5.75;;;1.98;;
45728;SDS011;31439;53.512;10.206;2023-05-02T12:58:48;5.82;;;1.85;;
45728;SDS011;31439;53.512;10.206;2023-05-02T13:01:14;9.50;;;1.80;;
45728;SDS011;31439;53.512;10.206;2023-05-02T13:03:41;7.95;;;1.60;;
45728;SDS011;31439;53.512;10.206;2023-05-02T13:06:07;7.50;;;1.73;;
45728;SDS011;31439;53.512;10.206;2023-05-02T13:08:33;8.32;;;2.00;;
45728;SDS011;31439;53.512;10.206;2023-05-02T13:11:01;6.20;;;1.67;;
45728;SDS011;31439;53.512;10.206;2023-05-02T13:13:27;3.75;;;1.30;;
45728;SDS011;31439;53.512;10.206;2023-05-02T13:16:02;4.10;;;1.48;;
45728;SDS011;31439;53.512;10.206;2023-05-02T13:18:28;7.80;;;1.75;;
45728;SDS011;31439;53.512;10.206;2023-05-02T13:20:54;6.68;;;1.80;;
45728;SDS011;31439;53.512;10.206;2023-05-02T13:23:21;4.40;;;1.80;;
45728;SDS011;31439;53.512;10.206;2023-05-02T13:25:50;4.68;;;1.80;;
45728;SDS011;31439;53.512;10.206;2023-05-02T13:28:16;5.97;;;1.80;;
45728;SDS011;31439;53.512;10.206;2023-05-02T13:30:42;5.85;;;1.55;;
45728;SDS011;31439;53.512;10.206;2023-05-02T13:33:10;6.65;;;1.80;;
45728;SDS011;31439;53.512;10.206;2023-05-02T13:35:36;6.10;;;1.63;;
45728;SDS011;31439;53.512;10.206;2023-05-02T13:38:02;6.35;;;1.50;;
45728;SDS011;31439;53.512;10.206;2023-05-02T13:40:27;5.57;;;1.90;;
45728;SDS011;31439;53.512;10.206;2023-05-02T13:42:53;6.68;;;1.65;;
45728;SDS011;31439;53.512;10.206;2023-05-02T13:45:19;7.82;;;1.70;;
45728;SDS011;31439;53.512;10.206;2023-05-02T13:47:45;6.63;;;1.73;;
45728;SDS011;31439;53.512;10.206;2023-05-02T13:50:11;4.50;;;1.45;;
45728;SDS011;31439;53.512;10.206;2023-05-02T13:52:37;8.57;;;1.80;;
45728;SDS011;31439;53.512;10.206;2023-05-02T13:55:03;6.57;;;1.58;;
45728;SDS011;31439;53.512;10.206;2023-05-02T13:57:29;10.82;;;2.20;;
45728;SDS011;31439;53.512;10.206;2023-05-02T13:59:55;7.72;;;1.88;;
45728;SDS011;31439;53.512;10.206;2023-05-02T14:02:21;5.78;;;1.70;;
45728;SDS011;31439;53.512;10.206;2023-05-02T14:04:50;5.78;;;1.83;;
45728;SDS011;31439;53.512;10.206;2023-05-02T14:07:16;4.90;;;1.65;;
45728;SDS011;31439;53.512;10.206;2023-05-02T14:09:42;6.25;;;1.60;;
45728;SDS011;31439;53.512;10.206;2023-05-02T14:12:08;5.63;;;1.77;;
45728;SDS011;31439;53.512;10.206;2023-05-02T14:14:34;4.22;;;1.42;;
45728;SDS011;31439;53.512;10.206;2023-05-02T14:17:01;5.38;;;1.52;;
45728;SDS011;31439;53.512;10.206;2023-05-02T14:19:27;4.82;;;1.30;;
45728;SDS011;31439;53.512;10.206;2023-05-02T14:21:52;5.63;;;1.67;;
45728;SDS011;31439;53.512;10.206;2023-05-02T14:24:18;5.53;;;1.65;;
45728;SDS011;31439;53.512;10.206;2023-05-02T14:26:43;7.22;;;1.60;;
45728;SDS011;31439;53.512;10.206;2023-05-02T14:29:09;7.55;;;2.00;;
45728;SDS011;31439;53.512;10.206;2023-05-02T14:31:35;6.75;;;1.83;;
45728;SDS011;31439;53.512;10.206;2023-05-02T14:34:01;5.85;;;2.00;;
45728;SDS011;31439;53.512;10.206;2023-05-02T14:36:26;4.80;;;1.60;;
45728;SDS011;31439;53.512;10.206;2023-05-02T14:38:52;5.65;;;1.50;;
45728;SDS011;31439;53.512;10.206;2023-05-02T14:41:18;4.13;;;1.50;;
45728;SDS011;31439;53.512;10.206;2023-05-02T14:43:45;5.72;;;1.75;;
45728;SDS011;31439;53.512;10.206;2023-05-02T14:46:10;7.55;;;1.67;;
45728;SDS011;31439;53.512;10.206;2023-05-02T14:48:36;5.47;;;1.60;;
45728;SDS011;31439;53.512;10.206;2023-05-02T14:51:02;3.97;;;1.38;;
45728;SDS011;31439;53.512;10.206;2023-05-02T14:53:34;7.88;;;2.03;;
45728;SDS011;31439;53.512;10.206;2023-05-02T14:56:00;9.07;;;1.90;;
45728;SDS011;31439;53.512;10.206;2023-05-02T14:58:26;6.72;;;1.70;;
45728;SDS011;31439;53.512;10.206;2023-05-02T15:00:51;5.82;;;1.98;;
45728;SDS011;31439;53.512;10.206;2023-05-02T15:03:17;7.47;;;1.75;;
45728;SDS011;31439;53.512;10.206;2023-05-02T15:05:55;4.57;;;1.30;;
45728;SDS011;31439;53.512;10.206;2023-05-02T15:08:42;5.90;;;1.60;;
45728;SDS011;31439;53.512;10.206;2023-05-02T15:11:09;6.95;;;1.65;;
45728;SDS011;31439;53.512;10.206;2023-05-02T15:13:40;4.88;;;1.77;;
45728;SDS011;31439;53.512;10.206;2023-05-02T15:16:08;6.90;;;1.67;;
45728;SDS011;31439;53.512;10.206;2023-05-02T15:23:04;4.85;;;1.83;;
45728;SDS011;31439;53.512;10.206;2023-05-02T15:25:30;5.10;;;1.67;;